LEVC/VLC METAR and TAF weather

Enter ICAO airport designator
Station Type Date Time Source
LEVC METAR 2022/12/01 00:00 UTC NOAA

LEVC 010000Z 33007KT 9999 FEW025 11/07 Q1015 NOSIG


Station Type Date Time Source
LEVC Decoded METAR 2022/12/01 00:00 UTC NOAA

Valencia / Aeropuerto, Spain (LEVC) 39-30N 000-28W 62M
Nov 30, 2022 - 07:00 PM EST / 2022.12.01 0000 UTC
Wind: from the NNW (330 degrees) at 8 MPH (7 KT):0
Visibility: greater than 7 mile(s):0
Sky conditions: mostly clear
Temperature: 51 F (11 C)
Dew Point: 44 F (7 C)
Relative Humidity: 76%
Pressure (altimeter): 29.97 in. Hg (1015 hPa)
ob: LEVC 010000Z 33007KT 9999 FEW025 11/07 Q1015 NOSIG
cycle: 0

Station Type Date Time Source
LEVC TAF 2022/11/30 18:27 UTC NOAA

TAF LEVC 301700Z 3018/0118 32005KT 9999 SCT020 TX15/0112Z TN09/0106Z PROB30
TEMPO 0100/0109 3000 RA FEW020TCU
BECMG 0110/0112 04010KT PROB40
TEMPO 0109/0118 3000 SHRA FEW020TCU

Example: see airport list